Time;durP1;ratioP1;P1;durP2;ratioP2;P2;SDS_P1;SDS_P2;PMS_P1;PMS_P2;Temp;Humidity;BMP_temperature;BMP_pressure;BME280_temperature;BME280_humidity;BME280_pressure;Samples;Min_cycle;Max_cycle;Signal;HPM_P1;HPM_P2
2024/01/31 00:01:23;;;;;;;8.50;6.60;;;;;;;20.82;26.69;102955.37;102654;1294;61601;-79
2024/01/31 00:03:48;;;;;;;8.20;6.50;;;;;;;20.83;26.79;102958.36;102638;1296;61930;-79
2024/01/31 00:06:14;;;;;;;10.30;6.70;;;;;;;20.83;26.71;102958.02;102679;1292;61849;-79
2024/01/31 00:08:40;;;;;;;9.30;6.50;;;;;;;20.82;26.82;102949.64;102606;1294;61636;-78
2024/01/31 00:11:07;;;;;;;8.50;6.50;;;;;;;20.82;26.74;102954.10;102584;1294;61337;-79
2024/01/31 00:13:34;;;;;;;9.50;6.70;;;;;;;20.84;26.85;102951.20;102596;1293;72577;-79
2024/01/31 00:16:00;;;;;;;8.60;6.30;;;;;;;20.83;26.69;102950.48;102654;1294;61705;-79
2024/01/31 00:18:26;;;;;;;8.90;6.30;;;;;;;20.84;26.72;102945.45;102858;1296;61870;-79
2024/01/31 00:20:51;;;;;;;8.60;6.10;;;;;;;20.84;26.76;102943.83;102522;1294;62597;-79
2024/01/31 00:23:19;;;;;;;9.10;6.20;;;;;;;20.84;26.69;102947.60;102680;1296;61777;-80
2024/01/31 00:25:46;;;;;;;8.70;6.30;;;;;;;20.84;26.65;102945.08;102623;1299;74321;-80
2024/01/31 00:28:14;;;;;;;7.60;5.90;;;;;;;20.85;26.73;102941.86;102708;1294;62669;-79
2024/01/31 00:30:40;;;;;;;7.40;5.60;;;;;;;20.85;26.57;102941.13;102584;1296;61406;-78
2024/01/31 00:33:06;;;;;;;9.20;6.10;;;;;;;20.84;26.78;102939.16;102738;1294;61924;-79
2024/01/31 00:35:31;;;;;;;9.60;6.40;;;;;;;20.85;26.68;102942.38;102561;1294;61404;-79
2024/01/31 00:38:00;;;;;;;7.70;5.90;;;;;;;20.86;26.75;102945.02;102638;1294;61392;-80
2024/01/31 00:40:26;;;;;;;7.60;5.80;;;;;;;20.86;26.48;102946.46;102719;1294;62369;-81
2024/01/31 00:42:52;;;;;;;7.80;6.00;;;;;;;20.86;26.56;102943.06;102619;1292;61323;-79
2024/01/31 00:45:18;;;;;;;8.50;6.00;;;;;;;20.86;26.59;102940.20;102743;1294;61430;-79
2024/01/31 00:47:44;;;;;;;7.90;6.10;;;;;;;20.86;26.60;102941.80;102600;1294;62515;-80
2024/01/31 00:50:11;;;;;;;8.90;6.30;;;;;;;20.86;26.73;102942.69;102711;1294;61343;-79
2024/01/31 00:52:37;;;;;;;8.00;5.70;;;;;;;20.86;26.63;102938.74;102718;1294;61388;-80
2024/01/31 00:55:04;;;;;;;7.10;5.60;;;;;;;20.87;26.63;102936.77;102724;1292;61322;-79
2024/01/31 00:57:29;;;;;;;8.60;6.20;;;;;;;20.87;26.68;102933.16;102625;1294;61501;-80
2024/01/31 00:59:55;;;;;;;8.40;5.60;;;;;;;20.87;26.61;102932.10;102467;1299;61813;-79
2024/01/31 01:02:21;;;;;;;7.80;5.40;;;;;;;20.87;26.60;102930.47;102803;1294;61442;-79
2024/01/31 01:04:47;;;;;;;8.10;5.60;;;;;;;20.88;26.47;102930.09;102609;1293;73189;-81
2024/01/31 01:07:13;;;;;;;7.70;5.70;;;;;;;20.89;26.43;102930.25;102556;1299;61536;-81
2024/01/31 01:09:38;;;;;;;8.40;6.00;;;;;;;20.88;26.60;102931.33;102650;1294;62592;-80
2024/01/31 01:12:04;;;;;;;8.40;5.90;;;;;;;20.89;26.57;102931.86;102637;1299;61438;-79
2024/01/31 01:14:30;;;;;;;9.30;6.00;;;;;;;20.88;26.54;102931.52;102594;1294;61880;-80
2024/01/31 01:16:56;;;;;;;8.20;6.10;;;;;;;20.88;26.64;102926.70;102704;1294;61406;-80
2024/01/31 01:19:21;;;;;;;7.50;6.10;;;;;;;20.88;26.45;102921.33;102699;1296;74430;-80
2024/01/31 01:21:47;;;;;;;8.50;6.00;;;;;;;20.88;26.56;102922.53;102738;1294;61358;-80
2024/01/31 01:24:13;;;;;;;8.90;5.90;;;;;;;20.89;26.69;102917.81;102813;1294;61411;-79
2024/01/31 01:26:39;;;;;;;8.30;5.80;;;;;;;20.89;26.45;102918.02;102728;1295;62585;-79
2024/01/31 01:29:05;;;;;;;8.20;6.00;;;;;;;20.89;26.47;102911.09;102664;1293;61376;-80
2024/01/31 01:31:31;;;;;;;8.60;6.20;;;;;;;20.89;26.44;102905.41;102738;1292;61457;-78
2024/01/31 01:33:59;;;;;;;8.30;6.00;;;;;;;20.90;26.60;102904.79;102670;1294;61486;-80
2024/01/31 01:36:25;;;;;;;9.20;6.40;;;;;;;20.89;26.46;102899.27;102634;1292;61733;-79
2024/01/31 01:38:51;;;;;;;8.20;5.90;;;;;;;20.89;26.47;102899.65;102621;1299;61379;-79
2024/01/31 01:41:18;;;;;;;8.00;6.00;;;;;;;20.90;26.47;102894.06;102655;1294;61711;-79
2024/01/31 01:43:43;;;;;;;7.80;5.70;;;;;;;20.90;26.46;102894.05;102769;1296;62096;-79
2024/01/31 01:46:15;;;;;;;7.90;6.10;;;;;;;20.90;26.43;102893.48;102679;1292;61790;-79
2024/01/31 01:48:41;;;;;;;7.70;5.70;;;;;;;20.90;26.38;102887.05;102670;1296;72560;-80
2024/01/31 01:51:07;;;;;;;8.40;5.90;;;;;;;20.90;26.46;102884.73;102695;1293;62760;-81
2024/01/31 01:53:34;;;;;;;8.00;5.90;;;;;;;20.90;26.40;102882.39;102704;1294;61504;-80
2024/01/31 01:56:02;;;;;;;8.20;6.20;;;;;;;20.91;26.51;102879.25;102806;1294;61390;-79
2024/01/31 01:58:28;;;;;;;8.70;5.70;;;;;;;20.91;26.35;102878.44;102393;1298;61364;-80
2024/01/31 02:00:54;;;;;;;8.30;5.70;;;;;;;20.91;26.32;102877.73;102302;1295;62297;-79
2024/01/31 02:03:20;;;;;;;8.40;6.20;;;;;;;20.91;26.37;102879.13;102353;1294;61508;-78
2024/01/31 02:05:46;;;;;;;8.40;6.00;;;;;;;20.91;26.36;102875.92;102385;1297;61603;-79
2024/01/31 02:08:12;;;;;;;8.70;5.80;;;;;;;20.91;26.14;102875.19;102314;1297;61807;-80
2024/01/31 02:10:38;;;;;;;7.80;5.70;;;;;;;20.92;26.31;102874.29;102349;1294;61306;-80
2024/01/31 02:13:04;;;;;;;9.10;6.50;;;;;;;20.91;26.40;102869.83;102423;1299;62448;-79
2024/01/31 02:15:29;;;;;;;7.90;6.20;;;;;;;20.92;26.38;102868.36;102371;1294;61486;-79
2024/01/31 02:17:55;;;;;;;7.40;5.90;;;;;;;20.92;26.37;102862.45;102562;1298;61476;-79
2024/01/31 02:20:22;;;;;;;7.80;5.90;;;;;;;20.92;26.23;102857.10;102371;1294;61357;-79
2024/01/31 02:22:48;;;;;;;7.60;6.00;;;;;;;20.92;26.33;102858.52;102272;1294;61378;-81
2024/01/31 02:25:14;;;;;;;9.10;6.10;;;;;;;20.92;26.05;102858.54;102247;1294;61440;-79
2024/01/31 02:27:40;;;;;;;8.00;6.10;;;;;;;20.92;26.28;102856.54;102391;1294;62692;-79
2024/01/31 02:30:07;;;;;;;9.30;5.90;;;;;;;20.92;26.24;102849.19;102399;1299;61377;-79
2024/01/31 02:32:34;;;;;;;7.00;5.50;;;;;;;20.92;26.18;102847.59;102274;1294;62517;-81
2024/01/31 02:35:01;;;;;;;8.50;5.90;;;;;;;20.93;26.36;102845.79;102301;1294;62189;-79
2024/01/31 02:37:26;;;;;;;8.20;6.20;;;;;;;20.93;26.23;102845.44;102552;1294;61475;-81
2024/01/31 02:39:52;;;;;;;8.70;6.10;;;;;;;20.93;26.27;102842.20;102626;1295;61427;-80
2024/01/31 02:42:18;;;;;;;8.30;5.60;;;;;;;20.93;26.18;102840.05;102620;1299;62158;-80
2024/01/31 02:44:45;;;;;;;8.20;5.90;;;;;;;20.93;26.10;102835.77;102630;1294;61565;-79
2024/01/31 02:47:10;;;;;;;7.80;5.90;;;;;;;20.94;26.12;102831.42;102623;1293;62799;-80
2024/01/31 02:49:39;;;;;;;8.50;6.10;;;;;;;20.94;26.13;102827.31;102662;1294;61302;-80
2024/01/31 02:52:05;;;;;;;8.70;5.50;;;;;;;20.93;26.19;102828.41;102677;1298;61434;-80
2024/01/31 02:54:31;;;;;;;8.10;6.00;;;;;;;20.93;26.15;102827.86;102625;1294;61393;-79
2024/01/31 02:56:57;;;;;;;8.20;5.90;;;;;;;20.94;26.26;102827.13;102611;1294;62439;-79
2024/01/31 02:59:23;;;;;;;8.30;6.30;;;;;;;20.94;26.05;102829.27;102695;1294;61331;-81
2024/01/31 03:01:49;;;;;;;8.60;6.30;;;;;;;20.94;25.86;102822.64;102724;1297;61520;-80
2024/01/31 03:04:15;;;;;;;9.40;6.10;;;;;;;20.94;26.10;102822.48;102561;1294;61998;-80
2024/01/31 03:06:41;;;;;;;8.50;6.10;;;;;;;20.94;26.00;102821.74;102685;1292;61333;-80
2024/01/31 03:09:06;;;;;;;9.30;6.30;;;;;;;20.94;25.99;102818.34;102676;1296;61862;-81
2024/01/31 03:11:33;;;;;;;8.20;5.80;;;;;;;20.95;26.06;102822.47;102669;1294;61512;-80
2024/01/31 03:13:59;;;;;;;8.20;6.40;;;;;;;20.95;26.11;102820.48;102607;1294;62502;-79
2024/01/31 03:16:25;;;;;;;8.00;6.10;;;;;;;20.94;26.09;102819.08;102577;1297;61397;-80
2024/01/31 03:18:53;;;;;;;7.90;5.30;;;;;;;20.95;25.89;102820.83;102371;1301;61684;-78
2024/01/31 03:21:19;;;;;;;8.00;6.10;;;;;;;20.95;26.08;102823.35;102385;1297;62381;-80
2024/01/31 03:23:45;;;;;;;9.20;6.60;;;;;;;20.95;25.99;102823.33;102348;1302;61408;-80
2024/01/31 03:26:12;;;;;;;8.60;6.10;;;;;;;20.96;25.80;102823.50;102319;1298;61545;-80
2024/01/31 03:28:37;;;;;;;8.50;6.20;;;;;;;20.95;25.93;102824.95;102439;1300;61645;-79
2024/01/31 03:31:03;;;;;;;8.50;5.90;;;;;;;20.96;25.96;102823.86;102538;1297;61294;-79
2024/01/31 03:33:29;;;;;;;8.60;5.80;;;;;;;20.96;25.93;102824.55;102300;1297;61673;-79
2024/01/31 03:35:55;;;;;;;8.50;6.00;;;;;;;20.96;26.00;102822.91;102236;1297;62786;-81
2024/01/31 03:38:21;;;;;;;7.70;5.70;;;;;;;20.97;26.10;102822.40;102375;1299;61525;-79
2024/01/31 03:40:46;;;;;;;8.00;6.20;;;;;;;20.96;25.94;102819.89;102530;1299;61379;-81
2024/01/31 03:43:12;;;;;;;9.90;6.00;;;;;;;20.97;25.84;102818.61;102403;1297;62593;-80
2024/01/31 03:45:38;;;;;;;8.60;6.20;;;;;;;20.97;25.74;102816.11;102239;1300;61402;-80
2024/01/31 03:48:04;;;;;;;7.70;6.00;;;;;;;20.97;25.95;102817.73;102297;1296;62123;-80
2024/01/31 03:50:30;;;;;;;8.70;5.90;;;;;;;20.97;25.90;102815.77;102546;1294;61993;-78
2024/01/31 03:52:56;;;;;;;8.20;6.00;;;;;;;20.97;25.93;102813.61;102548;1294;61485;-80
2024/01/31 03:55:22;;;;;;;9.10;6.10;;;;;;;20.97;25.87;102810.91;102633;1299;61370;-80
2024/01/31 03:57:47;;;;;;;8.00;5.70;;;;;;;20.97;25.93;102806.25;102620;1293;73657;-80
2024/01/31 04:00:13;;;;;;;8.40;6.30;;;;;;;20.98;25.98;102806.58;102683;1296;61469;-80
2024/01/31 04:02:39;;;;;;;8.40;6.10;;;;;;;20.98;25.73;102807.65;102648;1294;61361;-80
2024/01/31 04:05:08;;;;;;;7.80;6.10;;;;;;;20.98;25.77;102809.82;102662;1297;62153;-79
2024/01/31 04:07:35;;;;;;;7.60;5.80;;;;;;;20.98;25.77;102813.39;102723;1296;73488;-79
2024/01/31 04:10:01;;;;;;;7.80;5.50;;;;;;;20.98;25.91;102815.17;102643;1294;62431;-80
2024/01/31 04:12:26;;;;;;;8.90;6.20;;;;;;;20.98;25.90;102807.29;102611;1297;62207;-79
2024/01/31 04:14:52;;;;;;;8.20;6.30;;;;;;;20.98;25.72;102806.38;102623;1294;61628;-80
2024/01/31 04:17:19;;;;;;;8.60;6.10;;;;;;;20.99;25.91;102809.59;102611;1294;61826;-79
2024/01/31 04:19:48;;;;;;;8.30;6.00;;;;;;;20.98;25.66;102807.81;102666;1296;61494;-79
2024/01/31 04:22:16;;;;;;;7.70;5.70;;;;;;;20.99;25.87;102805.30;102769;1293;61326;-79
2024/01/31 04:24:45;;;;;;;8.60;6.20;;;;;;;20.98;25.88;102806.02;102668;1294;62253;-79
2024/01/31 04:27:11;;;;;;;8.50;5.90;;;;;;;20.99;25.83;102811.91;102543;1294;71702;-79
2024/01/31 04:29:40;;;;;;;9.00;6.30;;;;;;;20.99;25.79;102807.98;102639;1294;61485;-81
2024/01/31 04:32:07;;;;;;;8.70;5.90;;;;;;;20.99;25.79;102809.05;102644;1294;61399;-80
2024/01/31 04:34:34;;;;;;;7.70;6.00;;;;;;;20.99;25.69;102810.49;102849;1295;61921;-79
2024/01/31 04:37:01;;;;;;;8.40;6.10;;;;;;;20.99;25.72;102812.27;102567;1299;72514;-79
2024/01/31 04:39:27;;;;;;;9.90;6.80;;;;;;;20.99;25.71;102814.42;102620;1294;74289;-80
2024/01/31 04:41:52;;;;;;;8.90;6.40;;;;;;;20.99;25.82;102818.73;102758;1296;61458;-80
2024/01/31 04:44:18;;;;;;;9.70;6.60;;;;;;;20.98;25.80;102821.25;102643;1293;62377;-79
2024/01/31 04:46:45;;;;;;;10.40;7.40;;;;;;;20.98;25.78;102822.16;102698;1297;61464;-80
2024/01/31 04:49:11;;;;;;;9.10;6.80;;;;;;;20.98;25.65;102820.02;102739;1294;62152;-80
2024/01/31 04:51:41;;;;;;;9.00;7.20;;;;;;;20.98;25.53;102824.13;102583;1298;62214;-79
2024/01/31 04:54:07;;;;;;;10.10;7.30;;;;;;;20.97;25.46;102823.63;102614;1295;61492;-79
2024/01/31 04:56:34;;;;;;;9.80;6.90;;;;;;;20.96;25.49;102823.85;102485;1294;62591;-79
2024/01/31 04:59:01;;;;;;;9.40;7.50;;;;;;;20.96;25.40;102826.19;102687;1296;61476;-80
2024/01/31 05:01:28;;;;;;;9.80;7.70;;;;;;;20.94;25.29;102830.89;102728;1294;61865;-78
2024/01/31 05:03:57;;;;;;;9.40;7.20;;;;;;;20.94;25.14;102833.77;102704;1294;61402;-78
2024/01/31 05:06:23;;;;;;;9.60;7.40;;;;;;;20.93;25.23;102832.53;102794;1294;72517;-78
2024/01/31 05:08:50;;;;;;;10.00;7.60;;;;;;;20.92;24.93;102834.35;102729;1296;75804;-80
2024/01/31 05:11:16;;;;;;;9.30;7.60;;;;;;;20.91;24.90;102829.98;102753;1294;61379;-80
2024/01/31 05:13:43;;;;;;;11.30;7.90;;;;;;;20.89;24.87;102830.17;102740;1294;61819;-79
2024/01/31 05:16:09;;;;;;;11.40;8.00;;;;;;;20.87;24.67;102825.05;102694;1294;62567;-80
2024/01/31 05:18:36;;;;;;;9.60;7.60;;;;;;;20.86;24.55;102819.00;103036;1295;62645;-81
2024/01/31 05:21:02;;;;;;;12.90;8.50;;;;;;;20.83;24.56;102815.75;102884;1299;61431;-79
2024/01/31 05:23:27;;;;;;;10.70;8.50;;;;;;;20.79;24.65;102813.56;102865;1294;61419;-79
2024/01/31 05:25:53;;;;;;;11.60;8.30;;;;;;;20.75;24.44;102815.14;103455;1294;62383;-79
2024/01/31 05:28:20;;;;;;;11.70;8.00;;;;;;;20.71;24.29;102812.25;103305;1296;61424;-80
2024/01/31 05:30:46;;;;;;;14.20;9.70;;;;;;;20.67;24.27;102811.33;103119;1294;61321;-80
2024/01/31 05:33:12;;;;;;;12.70;9.60;;;;;;;20.62;24.21;102815.05;103120;1294;61830;-79
2024/01/31 05:35:38;;;;;;;13.00;9.10;;;;;;;20.60;24.20;102820.17;103080;1291;61403;-81
2024/01/31 05:38:04;;;;;;;10.90;8.40;;;;;;;20.57;24.14;102820.45;103070;1294;61501;-80
2024/01/31 05:40:30;;;;;;;12.20;9.50;;;;;;;20.54;24.10;102821.80;102967;1296;74383;-79
2024/01/31 05:42:56;;;;;;;14.10;10.50;;;;;;;20.49;24.15;102825.56;103040;1293;61461;-80
2024/01/31 05:45:22;;;;;;;15.20;10.50;;;;;;;20.44;24.02;102829.67;103378;1294;61910;-79
2024/01/31 05:47:48;;;;;;;16.00;11.10;;;;;;;20.38;23.92;102834.19;103328;1294;61309;-79
2024/01/31 05:50:14;;;;;;;18.20;11.20;;;;;;;20.32;23.96;102829.61;103647;1296;61324;-79
2024/01/31 05:52:39;;;;;;;21.60;12.20;;;;;;;20.24;23.90;102833.45;103326;1294;61424;-79
2024/01/31 05:55:05;;;;;;;20.10;12.30;;;;;;;20.17;23.99;102839.40;103640;1294;61377;-80
2024/01/31 05:57:32;;;;;;;19.60;12.00;;;;;;;20.10;24.08;102838.21;104149;1292;61659;-79
2024/01/31 05:59:57;;;;;;;19.80;12.40;;;;;;;20.04;24.01;102835.40;103969;1292;60204;-80
2024/01/31 06:02:23;;;;;;;21.30;11.30;;;;;;;19.98;24.09;102833.11;104029;1293;59639;-79
2024/01/31 06:04:49;;;;;;;21.10;11.90;;;;;;;19.92;24.12;102831.31;104403;1294;61339;-80
2024/01/31 06:07:15;;;;;;;17.30;12.00;;;;;;;19.89;24.06;102829.31;104286;1292;61346;-80
2024/01/31 06:09:41;;;;;;;29.20;11.70;;;;;;;19.84;23.99;102825.00;103886;1293;61446;-80
2024/01/31 06:12:07;;;;;;;18.90;11.20;;;;;;;19.81;24.13;102823.14;104233;1293;60113;-80
2024/01/31 06:14:36;;;;;;;17.20;11.10;;;;;;;19.77;24.09;102826.29;104010;1292;62620;-80
2024/01/31 06:17:03;;;;;;;19.80;11.50;;;;;;;19.74;23.98;102827.81;103724;1295;61349;-80
2024/01/31 06:19:30;;;;;;;14.70;10.70;;;;;;;19.71;23.92;102823.27;103659;1294;61202;-80
2024/01/31 06:21:55;;;;;;;20.10;8.80;;;;;;;19.68;23.84;102819.23;104091;1296;61202;-78
2024/01/31 06:24:21;;;;;;;13.10;8.70;;;;;;;19.69;23.96;102818.14;103961;1294;61364;-78
2024/01/31 06:26:47;;;;;;;12.50;9.00;;;;;;;19.72;24.13;102822.15;103869;1293;61301;-78
2024/01/31 06:29:18;;;;;;;13.90;8.30;;;;;;;19.77;24.24;102819.31;103990;1294;60124;-80
2024/01/31 06:31:48;;;;;;;38.30;13.30;;;;;;;19.82;24.28;102822.39;104049;1294;72553;-79
2024/01/31 06:34:16;;;;;;;41.30;13.30;;;;;;;19.86;24.25;102817.59;103742;1294;74243;-80
2024/01/31 06:36:50;;;;;;;34.40;12.00;;;;;;;19.92;24.44;102818.45;104164;1292;61488;-78
2024/01/31 06:39:15;;;;;;;30.10;12.20;;;;;;;19.98;24.33;102825.23;103867;1294;59855;-79
2024/01/31 06:41:41;;;;;;;26.10;10.80;;;;;;;20.03;24.40;102822.73;103966;1294;61327;-77
2024/01/31 06:44:07;;;;;;;23.40;10.70;;;;;;;20.07;24.43;102825.80;104081;1293;61384;-79
2024/01/31 06:46:33;;;;;;;21.50;9.90;;;;;;;20.12;24.69;102821.90;103949;1294;61482;-77
2024/01/31 06:48:59;;;;;;;16.30;9.10;;;;;;;20.15;24.60;102824.11;103999;1294;61417;-80
2024/01/31 06:51:24;;;;;;;18.30;8.60;;;;;;;20.18;24.67;102831.31;104175;1294;61981;-78
2024/01/31 06:53:50;;;;;;;20.70;9.70;;;;;;;20.22;24.71;102829.95;104467;1294;61059;-79
2024/01/31 06:56:19;;;;;;;19.60;9.10;;;;;;;20.26;24.78;102829.61;104426;1292;59662;-79
2024/01/31 06:58:48;;;;;;;15.70;8.40;;;;;;;20.30;24.84;102831.45;104399;1294;61327;-79
2024/01/31 07:01:34;;;;;;;;;;;;;;;20.32;25.21;102831.02;104865;1292;60573;-79
2024/01/31 07:04:00;;;;;;;18.10;8.50;;;;;;;20.30;25.41;102825.19;104529;1294;71444;-78
2024/01/31 07:06:27;;;;;;;20.90;9.30;;;;;;;20.33;25.55;102825.27;104859;1292;59719;-78
2024/01/31 07:08:53;;;;;;;16.40;8.70;;;;;;;20.34;25.52;102827.71;104625;1294;63519;-77
2024/01/31 07:11:19;;;;;;;14.60;8.20;;;;;;;20.36;25.64;102828.38;104684;1293;60502;-79
2024/01/31 07:13:45;;;;;;;20.10;9.00;;;;;;;20.38;25.62;102824.17;104558;1293;62775;-79
2024/01/31 07:16:10;;;;;;;18.10;8.50;;;;;;;20.40;25.56;102816.21;104517;1294;61514;-79
2024/01/31 07:18:40;;;;;;;17.90;8.40;;;;;;;20.43;25.74;102816.66;104294;1294;61919;-80
2024/01/31 07:21:09;;;;;;;21.10;8.20;;;;;;;20.45;25.87;102814.09;104315;1294;61436;-79
2024/01/31 07:23:37;;;;;;;14.60;8.20;;;;;;;20.47;25.70;102812.23;104521;1294;72256;-78
2024/01/31 07:26:03;;;;;;;16.70;8.10;;;;;;;20.48;25.82;102810.94;104271;1300;73232;-79
2024/01/31 07:28:33;;;;;;;18.30;8.60;;;;;;;20.49;25.71;102811.23;104506;1295;61285;-78
2024/01/31 07:31:02;;;;;;;16.20;8.30;;;;;;;20.52;25.84;102812.59;104357;1293;61295;-79
2024/01/31 07:33:28;;;;;;;14.30;8.20;;;;;;;20.53;25.66;102807.17;104322;1296;71385;-78
2024/01/31 07:35:55;;;;;;;19.10;8.50;;;;;;;20.54;25.77;102807.30;104651;1294;59565;-78
2024/01/31 07:38:20;;;;;;;15.50;8.40;;;;;;;20.56;25.95;102809.36;103197;1292;408158;-79
2024/01/31 07:40:46;;;;;;;17.80;8.20;;;;;;;20.58;25.97;102804.65;104495;1295;61498;-81
2024/01/31 07:43:12;;;;;;;13.90;8.20;;;;;;;20.59;26.09;102805.69;104357;1293;61330;-80
2024/01/31 07:45:39;;;;;;;13.30;8.00;;;;;;;20.60;26.19;102802.98;104571;1294;61156;-80
2024/01/31 07:48:05;;;;;;;16.60;8.00;;;;;;;20.59;26.18;102806.21;104589;1292;61371;-80
2024/01/31 07:50:31;;;;;;;20.70;8.10;;;;;;;20.58;26.28;102804.30;104635;1293;60357;-81
2024/01/31 07:52:57;;;;;;;15.40;8.90;;;;;;;20.55;26.19;102801.34;104677;1294;61214;-81
2024/01/31 07:55:22;;;;;;;13.60;8.60;;;;;;;20.52;26.15;102801.86;104620;1297;73538;-80
2024/01/31 07:57:50;;;;;;;22.40;9.60;;;;;;;20.46;26.10;102796.86;104560;1294;61422;-80
2024/01/31 08:00:18;;;;;;;17.50;8.50;;;;;;;20.44;26.31;102794.64;104746;1292;61306;-80
2024/01/31 08:02:44;;;;;;;16.50;8.70;;;;;;;20.42;26.43;102790.41;104491;1301;61217;-80
2024/01/31 08:05:10;;;;;;;18.40;9.10;;;;;;;20.42;26.53;102792.21;104819;1293;60440;-80
2024/01/31 08:07:36;;;;;;;14.10;8.60;;;;;;;20.40;26.58;102792.09;105124;1294;61423;-80
2024/01/31 08:10:02;;;;;;;15.50;9.30;;;;;;;20.39;26.48;102794.45;104816;1294;61415;-80
2024/01/31 08:12:27;;;;;;;15.60;8.90;;;;;;;20.38;26.37;102794.30;104808;1294;61435;-78
2024/01/31 08:14:53;;;;;;;13.20;9.00;;;;;;;20.39;26.32;102791.05;104749;1294;61538;-80
2024/01/31 08:17:19;;;;;;;15.60;8.40;;;;;;;20.41;26.49;102785.62;104746;1293;61291;-80
2024/01/31 08:19:44;;;;;;;19.10;9.00;;;;;;;20.43;26.25;102779.82;104758;1293;75526;-80
2024/01/31 08:22:10;;;;;;;14.50;8.90;;;;;;;20.45;26.39;102779.22;104674;1295;61476;-78
2024/01/31 08:24:36;;;;;;;13.50;8.50;;;;;;;20.47;26.43;102782.02;104809;1294;60570;-79
2024/01/31 08:27:01;;;;;;;14.90;8.60;;;;;;;20.48;26.41;102784.11;104859;1294;61269;-79
2024/01/31 08:29:28;;;;;;;15.20;8.30;;;;;;;20.49;26.42;102780.66;104829;1292;61348;-79
2024/01/31 08:31:53;;;;;;;14.10;8.70;;;;;;;20.51;26.38;102780.41;104714;1293;61351;-78
2024/01/31 08:34:19;;;;;;;17.00;8.60;;;;;;;20.53;26.31;102783.03;104566;1298;60107;-78
2024/01/31 08:36:45;;;;;;;17.60;9.60;;;;;;;20.54;26.60;102781.58;104821;1292;59848;-80
2024/01/31 08:39:10;;;;;;;14.60;8.60;;;;;;;20.54;26.50;102777.96;104752;1296;59229;-77
2024/01/31 08:41:36;;;;;;;18.00;9.10;;;;;;;20.57;26.61;102779.64;104922;1296;61120;-79
2024/01/31 08:44:02;;;;;;;16.20;9.10;;;;;;;20.59;26.57;102773.86;105019;1294;61342;-79
2024/01/31 08:46:29;;;;;;;20.10;9.20;;;;;;;20.61;26.56;102772.89;104359;1294;59505;-79
2024/01/31 08:48:55;;;;;;;13.90;8.20;;;;;;;20.61;26.66;102768.93;105081;1295;59751;-78
2024/01/31 08:51:20;;;;;;;17.90;9.00;;;;;;;20.63;26.62;102763.88;104637;1293;59332;-79
2024/01/31 08:53:46;;;;;;;12.60;8.00;;;;;;;20.64;26.71;102760.79;105073;1296;60599;-79
2024/01/31 08:56:11;;;;;;;22.70;9.20;;;;;;;20.66;26.77;102754.45;104676;1293;59662;-80
2024/01/31 08:58:38;;;;;;;31.50;9.30;;;;;;;20.66;26.73;102753.20;104696;1294;61402;-79
2024/01/31 09:01:03;;;;;;;24.20;8.60;;;;;;;20.66;27.14;102752.50;104573;1292;61306;-79
2024/01/31 09:03:29;;;;;;;15.90;8.60;;;;;;;20.66;27.30;102749.98;104761;1294;61834;-78
2024/01/31 09:05:55;;;;;;;17.00;8.30;;;;;;;20.66;27.33;102747.13;104931;1296;61293;-80
2024/01/31 09:08:21;;;;;;;15.10;8.80;;;;;;;20.67;27.38;102743.86;104490;1294;61319;-81
2024/01/31 09:10:47;;;;;;;15.60;8.40;;;;;;;20.67;27.29;102742.61;104535;1292;61342;-80
2024/01/31 09:13:12;;;;;;;14.50;7.80;;;;;;;20.66;27.35;102742.11;104410;1296;72564;-80
2024/01/31 09:15:38;;;;;;;15.90;8.40;;;;;;;20.62;27.30;102739.03;104564;1296;61385;-80
2024/01/31 09:18:04;;;;;;;18.70;9.40;;;;;;;20.57;27.32;102737.25;104496;1294;61449;-80
2024/01/31 09:20:30;;;;;;;13.50;8.80;;;;;;;20.52;27.41;102739.45;104338;1297;61360;-82
2024/01/31 09:22:56;;;;;;;13.90;9.00;;;;;;;20.47;27.29;102740.50;104175;1292;61320;-80
2024/01/31 09:25:21;;;;;;;16.20;8.90;;;;;;;20.42;27.20;102738.20;104452;1297;61452;-79
2024/01/31 09:27:47;;;;;;;13.60;8.50;;;;;;;20.37;27.12;102731.04;104220;1296;61357;-80
2024/01/31 09:30:13;;;;;;;17.40;9.40;;;;;;;20.33;27.05;102724.96;103768;1292;61393;-79
2024/01/31 09:32:39;;;;;;;15.70;8.90;;;;;;;20.28;27.05;102724.76;104024;1294;59975;-80
2024/01/31 09:35:05;;;;;;;17.80;9.80;;;;;;;20.24;27.03;102723.85;103678;1294;63046;-81
2024/01/31 09:37:32;;;;;;;16.40;9.30;;;;;;;20.18;27.00;102718.52;104322;1296;61377;-80
2024/01/31 09:40:01;;;;;;;13.50;9.50;;;;;;;20.14;26.91;102716.88;104167;1292;59366;-79
2024/01/31 09:42:27;;;;;;;17.60;9.90;;;;;;;20.11;26.84;102713.23;104195;1293;61093;-79
2024/01/31 09:44:55;;;;;;;14.70;9.30;;;;;;;20.07;26.88;102707.67;105654;1293;72319;-81
2024/01/31 09:47:23;;;;;;;16.40;9.60;;;;;;;20.04;26.85;102707.58;104926;1297;75717;-79
2024/01/31 09:49:48;;;;;;;18.70;9.60;;;;;;;20.01;26.93;102698.05;104928;1294;61302;-80
2024/01/31 09:52:14;;;;;;;17.50;10.20;;;;;;;19.99;27.06;102696.52;104218;1297;61369;-83
2024/01/31 09:54:40;;;;;;;25.80;10.00;;;;;;;19.97;27.04;102690.54;104764;1297;60131;-80
2024/01/31 09:57:06;;;;;;;22.60;9.30;;;;;;;19.94;28.23;102688.83;104687;1292;61384;-80
2024/01/31 09:59:32;;;;;;;23.70;10.60;;;;;;;19.95;29.44;102688.63;105121;1296;60333;-80
2024/01/31 10:01:58;;;;;;;33.00;12.20;;;;;;;19.98;30.00;102690.30;105084;1297;61283;-80
2024/01/31 10:04:23;;;;;;;26.20;10.00;;;;;;;20.00;30.17;102683.79;104888;1298;61596;-80
2024/01/31 10:06:51;;;;;;;29.80;10.30;;;;;;;20.02;30.61;102681.06;104846;1293;72529;-81
2024/01/31 10:09:17;;;;;;;24.40;10.80;;;;;;;20.01;30.56;102682.35;104951;1292;74695;-81
2024/01/31 10:11:49;;;;;;;24.30;10.90;;;;;;;19.96;30.53;102681.27;104976;1292;59862;-79
2024/01/31 10:14:15;;;;;;;21.20;9.90;;;;;;;19.96;30.71;102676.81;104889;1293;61258;-80
2024/01/31 10:16:41;;;;;;;20.90;10.80;;;;;;;19.94;30.70;102673.63;104929;1297;61425;-80
2024/01/31 10:19:08;;;;;;;20.90;10.10;;;;;;;19.94;30.51;102674.19;104860;1294;61245;-81
2024/01/31 10:21:33;;;;;;;19.20;9.60;;;;;;;19.92;30.34;102674.23;104878;1297;59083;-82
2024/01/31 10:24:00;;;;;;;17.40;9.50;;;;;;;19.91;30.18;102671.60;104644;1297;59257;-81
2024/01/31 10:26:28;;;;;;;16.00;8.80;;;;;;;19.89;30.03;102666.86;104337;1292;61369;-84
2024/01/31 10:28:55;;;;;;;19.30;9.80;;;;;;;19.87;29.99;102660.17;104393;1295;73392;-81
2024/01/31 10:31:22;;;;;;;16.40;9.50;;;;;;;19.84;29.88;102657.92;104392;1292;61341;-79
2024/01/31 10:33:49;;;;;;;16.40;8.60;;;;;;;19.82;29.99;102651.39;104447;1293;61460;-79
2024/01/31 10:36:18;;;;;;;20.00;10.00;;;;;;;19.81;30.07;102644.48;104278;1298;74831;-80
2024/01/31 10:38:43;;;;;;;18.70;10.00;;;;;;;19.81;30.14;102644.83;105652;1292;73398;-82
2024/01/31 10:41:11;;;;;;;18.10;9.00;;;;;;;19.81;30.20;102640.17;105122;1293;58941;-80
2024/01/31 10:43:37;;;;;;;18.90;9.90;;;;;;;19.81;30.24;102642.50;104236;1302;61092;-80
2024/01/31 10:46:04;;;;;;;18.60;10.50;;;;;;;19.81;30.12;102638.38;104293;1293;72459;-79
2024/01/31 10:48:29;;;;;;;17.00;9.50;;;;;;;19.81;30.33;102641.61;104348;1300;61289;-80
2024/01/31 10:50:56;;;;;;;16.60;9.50;;;;;;;19.79;30.18;102635.04;104415;1294;62154;-81
2024/01/31 10:53:21;;;;;;;16.10;9.70;;;;;;;19.77;30.44;102635.80;104220;1292;61750;-80
2024/01/31 10:55:48;;;;;;;26.80;10.10;;;;;;;19.75;30.32;102633.58;104485;1293;59615;-80
2024/01/31 10:58:14;;;;;;;20.50;10.40;;;;;;;19.74;30.21;102629.33;104121;1297;61947;-82
2024/01/31 11:00:48;;;;;;;18.00;9.80;;;;;;;19.72;30.31;102621.71;104419;1292;61469;-79
2024/01/31 11:03:17;;;;;;;19.80;9.70;;;;;;;19.70;30.20;102617.32;104713;1293;60779;-80
2024/01/31 11:05:43;;;;;;;17.00;9.90;;;;;;;19.59;29.86;102616.83;104770;1294;73891;-82
2024/01/31 11:08:21;;;;;;;19.70;9.30;;;;;;;19.55;29.76;102610.37;104894;1297;61771;-80